Norfolk Island International Airport
YSNF : now visible

Aeroporto :











RITROVATECI SU...

 
LOGIN :

Iscrizione | Disclaimer

   EN    FR    IT 

 









Sommario :    VFR   VFR Marginale   IFR   IFR Intensivo   IFR Molto Intensivo
Visibilità : 
Base nubi : 
>= 8 km
>= 3000ft
5 / 8 km
1000 / 3000 ft
1500m / 5 km
500 / 1000 ft
800 / 1500m
200 / 500 ft
< 800m
< 200 ft
Simboli :   Temporali  Nebbia  Neve Forte  Precipitazioni Forti  Vento > 20 kt






- Altitudine del aeroporto : 371 ft
- Codice IATA : NLK


YSNF - Norfolk Island International

ULTIMO METAR :
  • 252100Z AUTO 32005KT 290V360 9999 // SCT005 BKN036 BKN048 16/15 Q1018

METARs OBSOLETI :
  • 252057Z AUTO 34004KT 300V360 9999 -SHRA SCT005 SCT028 BKN039 16/15 Q1018
  • 252030Z AUTO 27014KT 3300 SHRA BKN005 OVC011 OVC021 16/15 Q1019
  • 252018Z AUTO 28013KT 6000 -SHRA BKN011 OVC022 17/16 Q1019
  • 252000Z AUTO 29007KT 8000 -SHRA BKN022 OVC066 17/16 Q1018
  • 251944Z AUTO 30005KT 9999 // SCT004 OVC066 17/16 Q1018
  • 251930Z AUTO 28007KT 9999 // BKN004 BKN020 OVC062 17/16 Q1018
  • 251900Z AUTO 29009KT 3800 -RA BKN003 OVC017 OVC058 16/16 Q1018
  • 251830Z AUTO 29010KT 3600 +DZ BKN003 BKN011 OVC020 17/16 Q1018
  • 251800Z AUTO 29007KT 4600 DZ OVC004 17/16 Q1017 RERA RF00.2/027.8

TAF AMD TAF YSNF
Valido dal 25 a 18 ore il 26 a 18 ore UTC


251731Z 2518/2618 32014KT 8000 -SHRA BKN020
BECMG 2607/2609 32013KT 9999 -SHRA SCT018
TEMPO 2518/2600 VRB15G25KT 3000 SHRA BKN005 INTER 2600/2606 5000 SHRA BKN010
FIR NZZO / Oceania



MetMap, La meteo Aeronautica in un colpo d'occhio ! - Copyright ORBIFLY Dicembre 2007 - Disclaimer

ORBIFLY MET'MAP TEAM :

Programmazione e sviluppo : Alexandra Zaïnal
Concezione : Baudouin d'Aumeries
Aiuto per la programmazione : Marc-Olivier Méhu
Supporto tecnico e logistico : Manuel Goepfert
Aiuto per la traduzione : Arnaldo La Scala

Contatto : metmap@orbifly.com




FONTI E CREDITI :

   NOAA       Earth
Advisory